Koerth, Texas
Current Conditions -  °F | °C
As of 7:35 AM on Friday 19 Dec 2014 (Local Time) from K66R Reporting Station
Thunderstorm Thunderstorm  
Wind Chill: 54°   Ceiling: 500
Heat Index: 54°   Visibility: 2.5mi
Dew Point: 53°   Wind: 12mph
Humidity: 98%   Direction: 350°N
Pressure: 30.04"   Gusts: 16mph
Location:  29.3984°N, 96.8256°W
Report Text: K66R 191335Z AUTO 35010G14KT 2 1/2SM +VCTSRA BKN005 BKN012 OVC050 12/12 A3004 RMK AO2 LTG DSNT N THRU E P0013 T01210118
Loading
Personal Weather Stations






























Interactive Weather Map New forecast layout! Learn more

10-Day Weather Forecast

Advertisements
Track Severe Weather on mobile